createdAt,value
2018-08-07T00:02:00.542Z,1.20
2018-08-07T00:04:29.167Z,1.42
2018-08-07T00:06:57.931Z,0.90
2018-08-07T00:09:26.540Z,0.98
2018-08-07T00:11:54.754Z,0.93
2018-08-07T00:14:23.335Z,1.12
2018-08-07T00:16:51.936Z,1.15
2018-08-07T00:19:20.590Z,1.35
2018-08-07T00:21:49.159Z,1.27
2018-08-07T00:24:17.477Z,1.20
2018-08-07T00:26:46.074Z,1.20
2018-08-07T00:29:14.698Z,1.20
2018-08-07T00:31:43.326Z,1.35
2018-08-07T00:34:11.926Z,1.02
2018-08-07T00:36:40.507Z,1.07
2018-08-07T00:39:11.435Z,1.10
2018-08-07T00:41:40.331Z,1.10
2018-08-07T00:44:08.971Z,1.15
2018-08-07T00:46:37.579Z,1.40
2018-08-07T00:49:06.386Z,1.55
2018-08-07T00:51:35.127Z,0.95
2018-08-07T00:54:03.799Z,1.20
2018-08-07T00:56:32.390Z,1.62
2018-08-07T00:59:00.622Z,0.90
2018-08-07T01:01:29.210Z,0.95
2018-08-07T01:03:58.083Z,1.05
2018-08-07T01:06:26.692Z,1.15
2018-08-07T01:08:55.577Z,1.50
2018-08-07T01:11:24.218Z,1.55
2018-08-07T01:13:52.873Z,1.10
2018-08-07T01:16:21.102Z,1.60
2018-08-07T01:18:49.718Z,1.50
2018-08-07T01:21:18.273Z,1.20
2018-08-07T01:23:46.915Z,1.25
2018-08-07T01:26:15.206Z,1.22
2018-08-07T01:28:43.438Z,1.12
2018-08-07T01:31:12.027Z,1.00
2018-08-07T01:33:40.586Z,1.50
2018-08-07T01:36:09.241Z,1.30
2018-08-07T01:38:37.858Z,1.20
2018-08-07T01:41:06.503Z,1.32
2018-08-07T01:43:34.726Z,1.50
2018-08-07T01:46:03.497Z,1.95
2018-08-07T01:48:32.238Z,1.10
2018-08-07T01:51:00.830Z,1.20
2018-08-07T01:53:29.288Z,1.55
2018-08-07T01:55:57.880Z,1.15
2018-08-07T01:58:26.505Z,1.65
2018-08-07T02:00:55.092Z,1.47
2018-08-07T02:03:23.673Z,1.40
2018-08-07T02:05:52.248Z,1.05
2018-08-07T02:08:21.036Z,2.00
2018-08-07T02:10:49.639Z,1.50
2018-08-07T02:13:18.297Z,1.27
2018-08-07T02:15:46.878Z,1.20
2018-08-07T02:18:15.453Z,1.52
2018-08-07T02:20:44.043Z,1.70
2018-08-07T02:23:12.612Z,1.65
2018-08-07T02:25:41.219Z,1.47
2018-08-07T02:28:09.817Z,1.90
2018-08-07T02:30:38.500Z,1.45
2018-08-07T02:33:07.216Z,1.50
2018-08-07T02:35:35.806Z,1.77
2018-08-07T02:38:04.430Z,1.45
2018-08-07T02:40:32.990Z,1.20
2018-08-07T02:43:01.619Z,1.67
2018-08-07T02:45:30.189Z,1.55
2018-08-07T02:47:58.757Z,1.30
2018-08-07T02:50:27.055Z,1.57
2018-08-07T02:52:55.726Z,2.20
2018-08-07T02:55:24.283Z,1.60
2018-08-07T02:57:52.867Z,0.95
2018-08-07T03:00:23.448Z,1.80
2018-08-07T03:02:52.070Z,1.35
2018-08-07T03:05:21.436Z,1.70
2018-08-07T03:07:50.874Z,2.02
2018-08-07T03:10:19.463Z,1.70
2018-08-07T03:12:48.078Z,1.47
2018-08-07T03:15:17.602Z,1.60
2018-08-07T03:17:46.824Z,2.15
2018-08-07T03:20:15.856Z,1.37
2018-08-07T03:22:44.415Z,1.50
2018-08-07T03:25:14.047Z,1.35
2018-08-07T03:27:43.831Z,2.12
2018-08-07T03:30:14.586Z,1.55
2018-08-07T03:32:43.481Z,1.62
2018-08-07T03:35:12.053Z,1.40
2018-08-07T03:37:41.022Z,1.82
2018-08-07T03:40:13.912Z,1.47
2018-08-07T03:42:42.752Z,1.57
2018-08-07T03:45:12.814Z,1.70
2018-08-07T03:47:41.831Z,1.70
2018-08-07T03:50:11.039Z,1.50
2018-08-07T03:52:39.623Z,1.67
2018-08-07T03:55:11.931Z,1.77
2018-08-07T03:57:40.844Z,1.20
2018-08-07T04:00:12.362Z,1.22
2018-08-07T04:02:40.595Z,2.20
2018-08-07T04:05:09.211Z,2.00
2018-08-07T04:07:37.950Z,1.45
2018-08-07T04:10:08.755Z,1.82
2018-08-07T04:12:37.301Z,1.20
2018-08-07T04:15:07.525Z,2.00
2018-08-07T04:17:36.257Z,1.42
2018-08-07T04:20:06.731Z,1.50
2018-08-07T04:22:35.345Z,1.42
2018-08-07T04:25:04.743Z,1.30
2018-08-07T04:27:33.060Z,2.17
2018-08-07T04:30:01.882Z,2.37
2018-08-07T04:33:59.612Z,1.20
2018-08-07T04:36:28.155Z,1.95
2018-08-07T04:38:57.020Z,1.87
2018-08-07T04:41:25.775Z,1.55
2018-08-07T04:43:54.374Z,1.42
2018-08-07T04:46:23.287Z,1.40
2018-08-07T04:48:51.880Z,1.77
2018-08-07T04:51:20.566Z,1.30
2018-08-07T04:53:49.210Z,1.47
2018-08-07T04:56:17.804Z,1.50
2018-08-07T04:58:46.388Z,1.57
2018-08-07T05:01:14.951Z,1.70
2018-08-07T05:03:43.616Z,1.07
2018-08-07T05:06:11.834Z,2.25
2018-08-07T05:08:40.721Z,1.50
2018-08-07T05:11:09.310Z,1.60
2018-08-07T05:13:37.951Z,1.80
2018-08-07T05:16:06.493Z,1.72
2018-08-07T05:18:35.083Z,1.37
2018-08-07T05:21:03.699Z,2.25
2018-08-07T05:23:32.285Z,1.40
2018-08-07T05:26:00.863Z,1.72
2018-08-07T05:28:29.457Z,1.30
2018-08-07T05:30:58.047Z,1.60
2018-08-07T05:33:26.674Z,1.42
2018-08-07T05:35:55.725Z,1.70
2018-08-07T05:38:24.527Z,1.30
2018-08-07T05:40:53.122Z,1.85
2018-08-07T05:43:21.718Z,1.60
2018-08-07T05:45:50.318Z,1.70
2018-08-07T05:48:18.941Z,1.20
2018-08-07T05:50:47.795Z,1.25
2018-08-07T05:53:16.204Z,1.57
2018-08-07T05:55:44.480Z,1.12
2018-08-07T05:58:13.079Z,1.22
2018-08-07T06:00:41.631Z,1.50
2018-08-07T06:03:10.181Z,1.85
2018-08-07T06:05:38.857Z,1.62
2018-08-07T06:08:07.457Z,1.52
2018-08-07T06:10:36.129Z,1.57
2018-08-07T06:13:05.050Z,1.42
2018-08-07T06:15:33.611Z,1.50
2018-08-07T06:18:02.202Z,1.40
2018-08-07T06:20:30.764Z,1.40
2018-08-07T06:22:59.353Z,1.32
2018-08-07T06:25:27.968Z,1.32
2018-08-07T06:27:56.595Z,1.47
2018-08-07T06:30:25.442Z,1.55
2018-08-07T06:32:54.040Z,1.80
2018-08-07T06:35:22.268Z,1.20
2018-08-07T06:37:50.837Z,1.42
2018-08-07T06:40:19.497Z,1.20
2018-08-07T06:42:48.099Z,1.40
2018-08-07T06:45:17.466Z,1.32
2018-08-07T06:47:46.388Z,1.15
2018-08-07T06:50:20.769Z,1.32
2018-08-07T06:52:50.402Z,1.50
2018-08-07T06:55:19.063Z,1.45
2018-08-07T06:57:47.752Z,1.30
2018-08-07T07:00:19.354Z,2.02
2018-08-07T07:02:48.045Z,1.37
2018-08-07T07:05:16.751Z,1.27
2018-08-07T07:07:45.329Z,1.60
2018-08-07T07:10:14.331Z,1.40
2018-08-07T07:12:44.176Z,1.37
2018-08-07T07:15:13.858Z,1.30
2018-08-07T07:17:43.723Z,1.10
2018-08-07T07:20:13.959Z,1.10
2018-08-07T07:22:43.775Z,1.10
2018-08-07T07:25:12.531Z,1.00
2018-08-07T07:27:41.727Z,1.02
2018-08-07T07:30:13.891Z,1.20
2018-08-07T07:32:43.077Z,1.00
2018-08-07T07:35:11.883Z,1.12
2018-08-07T07:37:40.527Z,1.60
2018-08-07T07:40:09.176Z,1.00
2018-08-07T07:42:37.759Z,0.93
2018-08-07T07:45:15.624Z,1.25
2018-08-07T07:49:13.388Z,1.47
2018-08-07T07:51:41.983Z,1.12
2018-08-07T07:54:10.571Z,1.35
2018-08-07T07:56:39.107Z,2.50
2018-08-07T07:59:07.692Z,1.42
2018-08-07T08:01:36.363Z,1.00
2018-08-07T08:04:05.999Z,1.00
2018-08-07T08:06:34.573Z,1.10
2018-08-07T08:09:03.270Z,1.10
2018-08-07T08:11:31.810Z,1.02
2018-08-07T08:14:00.370Z,1.20
2018-08-07T08:16:28.948Z,1.30
2018-08-07T08:18:57.599Z,1.05
2018-08-07T08:21:26.407Z,1.00
2018-08-07T08:23:55.003Z,1.37
2018-08-07T08:26:23.594Z,1.50
2018-08-07T08:28:52.781Z,1.27
2018-08-07T08:31:21.359Z,1.00
2018-08-07T08:33:50.342Z,1.27
2018-08-07T08:36:18.908Z,1.20
2018-08-07T08:38:47.682Z,0.80
2018-08-07T08:41:16.244Z,0.85
2018-08-07T08:43:44.871Z,1.10
2018-08-07T08:46:13.571Z,0.70
2018-08-07T08:48:42.211Z,0.85
2018-08-07T08:51:10.764Z,0.90
2018-08-07T08:53:39.749Z,1.05
2018-08-07T08:56:08.391Z,1.10
2018-08-07T08:58:37.011Z,1.85
2018-08-07T09:01:05.703Z,0.90
2018-08-07T09:03:34.423Z,0.90
2018-08-07T09:06:03.264Z,1.05
2018-08-07T09:08:31.924Z,1.30
2018-08-07T09:11:00.528Z,0.70
2018-08-07T09:13:29.174Z,0.83
2018-08-07T09:15:57.770Z,1.07
2018-08-07T09:18:26.378Z,0.83
2018-08-07T09:20:54.991Z,0.80
2018-08-07T09:23:23.569Z,1.20
2018-08-07T09:25:52.344Z,0.87
2018-08-07T09:28:20.800Z,0.90
2018-08-07T09:30:49.459Z,0.70
2018-08-07T09:33:18.068Z,0.97
2018-08-07T09:35:46.658Z,0.90
2018-08-07T09:38:15.480Z,1.00
2018-08-07T09:40:44.054Z,1.00
2018-08-07T09:43:12.670Z,0.90
2018-08-07T09:45:40.874Z,0.80
2018-08-07T09:48:11.416Z,1.17
2018-08-07T09:50:40.023Z,0.70
2018-08-07T09:53:09.231Z,0.60
2018-08-07T09:55:38.076Z,0.93
2018-08-07T09:58:07.152Z,0.90
2018-08-07T10:00:41.127Z,0.87
2018-08-07T10:03:11.616Z,1.10
2018-08-07T10:05:40.327Z,0.90
2018-08-07T10:08:08.983Z,1.00
2018-08-07T10:10:37.651Z,0.80
2018-08-07T10:13:05.886Z,0.70
2018-08-07T10:15:34.616Z,0.77
2018-08-07T10:18:03.943Z,0.73
2018-08-07T10:20:32.630Z,0.80
2018-08-07T10:23:01.285Z,0.90
2018-08-07T10:25:29.896Z,0.50
2018-08-07T10:27:58.620Z,0.50
2018-08-07T10:30:27.212Z,0.60
2018-08-07T10:32:55.843Z,0.60
2018-08-07T10:35:24.407Z,0.63
2018-08-07T10:37:53.009Z,0.50
2018-08-07T10:40:23.090Z,0.57
2018-08-07T10:42:51.394Z,0.60
2018-08-07T10:45:21.536Z,0.80
2018-08-07T10:47:50.194Z,0.70
2018-08-07T10:50:24.233Z,0.60
2018-08-07T10:52:53.028Z,0.60
2018-08-07T10:55:22.424Z,0.70
2018-08-07T10:57:52.390Z,0.70
2018-08-07T11:00:22.315Z,0.83
2018-08-07T11:02:52.092Z,0.63
2018-08-07T11:05:21.509Z,0.60
2018-08-07T11:07:50.207Z,0.67
2018-08-07T11:10:19.250Z,0.73
2018-08-07T11:12:47.891Z,0.53
2018-08-07T11:15:19.277Z,0.60
2018-08-07T11:17:48.730Z,0.67
2018-08-07T11:20:17.732Z,0.50
2018-08-07T11:22:48.039Z,0.73
2018-08-07T11:25:18.670Z,0.60
2018-08-07T11:27:47.254Z,0.60
2018-08-07T11:30:18.847Z,0.50
2018-08-07T11:34:16.869Z,0.60
2018-08-07T11:36:45.547Z,0.83
2018-08-07T11:39:14.167Z,0.50
2018-08-07T11:41:42.802Z,0.60
2018-08-07T11:44:11.754Z,0.77
2018-08-07T11:46:40.403Z,0.67
2018-08-07T11:49:09.043Z,0.77
2018-08-07T11:51:37.623Z,0.50
2018-08-07T11:54:06.610Z,0.80
2018-08-07T11:56:34.842Z,0.90
2018-08-07T11:59:08.887Z,0.60
2018-08-07T12:01:37.446Z,0.80
2018-08-07T12:04:06.639Z,0.50
2018-08-07T12:06:35.279Z,0.70
2018-08-07T12:09:04.675Z,0.70
2018-08-07T12:11:33.267Z,0.70
2018-08-07T12:14:01.878Z,0.90
2018-08-07T12:16:30.491Z,0.60
2018-08-07T12:18:59.302Z,0.80
2018-08-07T12:21:28.122Z,0.70
2018-08-07T12:23:56.740Z,1.10
2018-08-07T12:26:25.367Z,0.63
2018-08-07T12:28:54.065Z,0.73
2018-08-07T12:31:22.670Z,0.50
2018-08-07T12:33:51.529Z,0.60
2018-08-07T12:36:19.794Z,0.50
2018-08-07T12:38:48.370Z,0.80
2018-08-07T12:41:17.074Z,0.60
2018-08-07T12:43:45.619Z,0.70
2018-08-07T12:46:14.289Z,0.40
2018-08-07T12:48:43.128Z,0.60
2018-08-07T12:51:11.797Z,0.50
2018-08-07T12:53:40.456Z,0.40
2018-08-07T12:56:09.086Z,0.40
2018-08-07T12:58:37.368Z,0.43
2018-08-07T13:01:05.642Z,0.50
2018-08-07T13:03:33.936Z,0.40
2018-08-07T13:06:02.570Z,0.80
2018-08-07T13:08:31.235Z,0.40
2018-08-07T13:11:00.075Z,0.60
2018-08-07T13:13:28.674Z,0.40
2018-08-07T13:15:56.926Z,0.50
2018-08-07T13:18:25.507Z,0.67
2018-08-07T13:20:54.096Z,0.53
2018-08-07T13:23:22.322Z,0.50
2018-08-07T13:25:50.922Z,0.70
2018-08-07T13:28:19.548Z,0.40
2018-08-07T13:30:47.779Z,0.60
2018-08-07T13:33:16.314Z,0.40
2018-08-07T13:35:44.577Z,0.50
2018-08-07T13:38:12.801Z,0.50
2018-08-07T13:40:41.402Z,0.50
2018-08-07T13:43:10.204Z,0.50
2018-08-07T13:45:39.058Z,0.40
2018-08-07T13:48:07.645Z,0.40
2018-08-07T13:50:36.389Z,0.40
2018-08-07T13:53:05.012Z,0.53
2018-08-07T13:55:33.624Z,0.40
2018-08-07T13:58:02.223Z,0.50
2018-08-07T14:00:31.404Z,0.40
2018-08-07T14:03:00.140Z,0.60
2018-08-07T14:05:28.790Z,0.40
2018-08-07T14:07:58.189Z,0.50
2018-08-07T14:10:28.143Z,0.50
2018-08-07T14:12:56.818Z,0.53
2018-08-07T14:15:27.247Z,0.50
2018-08-07T14:17:55.698Z,0.60
2018-08-07T14:20:24.375Z,0.73
2018-08-07T14:22:52.986Z,0.60
2018-08-07T14:25:23.089Z,0.50
2018-08-07T14:27:51.736Z,0.40
2018-08-07T14:30:22.355Z,0.37
2018-08-07T14:32:51.357Z,0.47
2018-08-07T14:35:20.255Z,0.40
2018-08-07T14:37:49.481Z,0.60
2018-08-07T14:40:19.597Z,0.50
2018-08-07T14:42:49.080Z,0.53
2018-08-07T14:45:19.263Z,0.40
2018-08-07T14:47:48.155Z,0.53
2018-08-07T14:50:18.852Z,0.40
2018-08-07T14:52:47.547Z,0.60
2018-08-07T14:55:16.198Z,0.60
2018-08-07T14:57:44.826Z,0.40
2018-08-07T15:00:15.883Z,0.60
2018-08-07T15:02:44.862Z,0.40
2018-08-07T15:05:13.504Z,0.50
2018-08-07T15:07:42.117Z,0.60
2018-08-07T15:10:13.984Z,0.40
2018-08-07T15:12:42.375Z,0.50
2018-08-07T15:15:14.270Z,0.40
2018-08-07T15:17:43.127Z,0.53
2018-08-07T15:20:13.543Z,0.40
2018-08-07T15:22:42.502Z,0.40
2018-08-07T15:25:13.504Z,0.30
2018-08-07T15:27:42.385Z,0.40
2018-08-07T15:30:16.106Z,0.50
2018-08-07T15:32:45.643Z,0.40
2018-08-07T15:35:15.604Z,0.60
2018-08-07T15:37:44.818Z,0.30
2018-08-07T15:40:14.156Z,0.50
2018-08-07T15:42:43.654Z,0.50
2018-08-07T15:45:13.327Z,0.40
2018-08-07T15:47:41.577Z,0.60
2018-08-07T15:50:12.990Z,0.50
2018-08-07T15:52:42.958Z,0.50
2018-08-07T15:55:15.032Z,0.77
2018-08-07T15:57:43.290Z,0.53
2018-08-07T16:00:15.291Z,0.83
2018-08-07T16:02:43.666Z,1.07
2018-08-07T16:05:12.321Z,0.60
2018-08-07T16:07:40.947Z,0.50
2018-08-07T16:10:12.542Z,0.70
2018-08-07T16:12:41.259Z,0.90
2018-08-07T16:15:09.914Z,0.60
2018-08-07T16:17:38.512Z,0.53
2018-08-07T16:20:07.710Z,0.70
2018-08-07T16:22:36.913Z,0.67
2018-08-07T16:25:05.938Z,1.10
2018-08-07T16:27:34.519Z,0.90
2018-08-07T16:30:03.230Z,0.60
2018-08-07T16:32:31.780Z,1.00
2018-08-07T16:35:00.424Z,1.10
2018-08-07T16:37:29.182Z,0.90
2018-08-07T16:39:57.738Z,1.07
2018-08-07T16:42:25.994Z,1.10
2018-08-07T16:44:54.563Z,1.00
2018-08-07T16:47:23.154Z,1.27
2018-08-07T16:49:51.734Z,0.80
2018-08-07T16:52:20.339Z,1.23
2018-08-07T16:54:48.930Z,1.00
2018-08-07T16:57:17.560Z,0.80
2018-08-07T16:59:46.232Z,1.20
2018-08-07T17:02:14.848Z,1.13
2018-08-07T17:04:43.430Z,0.90
2018-08-07T17:07:12.097Z,1.13
2018-08-07T17:09:41.105Z,1.73
2018-08-07T17:12:09.691Z,0.80
2018-08-07T17:14:38.252Z,0.90
2018-08-07T17:17:06.823Z,1.47
2018-08-07T17:19:35.430Z,1.27
2018-08-07T17:22:04.106Z,1.00
2018-08-07T17:24:32.787Z,0.90
2018-08-07T17:27:01.411Z,1.27
2018-08-07T17:29:30.015Z,1.23
2018-08-07T17:31:58.583Z,0.90
2018-08-07T17:34:27.145Z,0.73
2018-08-07T17:36:55.806Z,1.10
2018-08-07T17:39:24.370Z,1.07
2018-08-07T17:41:53.019Z,1.07
2018-08-07T17:44:21.713Z,0.80
2018-08-07T17:46:50.296Z,1.20
2018-08-07T17:49:18.906Z,1.17
2018-08-07T17:51:47.578Z,1.17
2018-08-07T17:54:15.810Z,0.80
2018-08-07T17:56:44.473Z,1.10
2018-08-07T17:59:13.242Z,1.30
2018-08-07T18:01:41.466Z,1.13
2018-08-07T18:04:10.094Z,1.57
2018-08-07T18:06:38.848Z,1.20
2018-08-07T18:09:09.367Z,1.10
2018-08-07T18:11:38.459Z,0.97
2018-08-07T18:14:07.842Z,1.13
2018-08-07T18:16:36.454Z,0.98
2018-08-07T18:19:05.104Z,1.10
2018-08-07T18:21:33.692Z,1.13
2018-08-07T18:24:02.253Z,1.00
2018-08-07T18:26:30.986Z,1.30
2018-08-07T18:28:59.764Z,1.10
2018-08-07T18:31:28.361Z,1.00
2018-08-07T18:33:56.939Z,1.70
2018-08-07T18:36:25.562Z,1.10
2018-08-07T18:38:54.167Z,1.00
2018-08-07T18:41:22.779Z,1.32
2018-08-07T18:43:51.367Z,1.10
2018-08-07T18:46:20.135Z,1.25
2018-08-07T18:48:48.935Z,1.07
2018-08-07T18:51:17.520Z,1.10
2018-08-07T18:53:46.123Z,1.30
2018-08-07T18:56:14.690Z,0.80
2018-08-07T18:58:43.331Z,1.00
2018-08-07T19:01:11.919Z,1.25
2018-08-07T19:03:40.568Z,1.20
2018-08-07T19:06:09.166Z,1.10
2018-08-07T19:08:37.899Z,1.30
2018-08-07T19:11:06.691Z,1.22
2018-08-07T19:13:35.438Z,1.17
2018-08-07T19:16:04.187Z,1.27
2018-08-07T19:18:32.843Z,1.00
2018-08-07T19:21:01.495Z,1.30
2018-08-07T19:23:30.199Z,1.00
2018-08-07T19:25:59.078Z,1.57
2018-08-07T19:28:27.766Z,0.82
2018-08-07T19:30:56.428Z,1.00
2018-08-07T19:33:25.053Z,1.85
2018-08-07T19:35:53.841Z,1.77
2018-08-07T19:38:22.421Z,1.10
2018-08-07T19:40:51.059Z,1.30
2018-08-07T19:43:19.666Z,1.02
2018-08-07T19:45:48.253Z,1.40
2018-08-07T19:48:16.867Z,1.25
2018-08-07T19:50:45.515Z,1.50
2018-08-07T19:53:14.199Z,1.00
2018-08-07T19:55:42.898Z,1.47
2018-08-07T19:58:11.392Z,1.40
2018-08-07T20:00:39.966Z,1.82
2018-08-07T20:03:08.637Z,1.35
2018-08-07T20:05:37.231Z,1.52
2018-08-07T20:08:06.078Z,1.72
2018-08-07T20:10:34.700Z,1.52
2018-08-07T20:13:03.318Z,1.67
2018-08-07T20:15:31.903Z,1.20
2018-08-07T20:18:00.454Z,1.25
2018-08-07T20:20:29.122Z,1.72
2018-08-07T20:22:57.838Z,1.30
2018-08-07T20:25:26.746Z,1.70
2018-08-07T20:27:55.346Z,1.42
2018-08-07T20:30:24.607Z,1.80
2018-08-07T20:32:54.772Z,1.20
2018-08-07T20:35:23.530Z,1.70
2018-08-07T20:37:52.126Z,1.35
2018-08-07T20:40:22.783Z,1.27
2018-08-07T20:42:51.711Z,1.37
2018-08-07T20:45:21.171Z,1.50
2018-08-07T20:47:49.999Z,1.35
2018-08-07T20:50:20.039Z,1.72
2018-08-07T20:52:48.792Z,1.98
2018-08-07T20:55:17.573Z,1.62
2018-08-07T20:57:46.198Z,1.42
2018-08-07T21:00:17.246Z,1.45
2018-08-07T21:02:45.931Z,1.40
2018-08-07T21:05:14.519Z,1.57
2018-08-07T21:07:43.383Z,1.47
2018-08-07T21:10:14.703Z,1.50
2018-08-07T21:12:43.622Z,2.20
2018-08-07T21:15:12.773Z,1.67
2018-08-07T21:17:41.473Z,1.57
2018-08-07T21:20:12.413Z,1.45
2018-08-07T21:22:41.259Z,1.50
2018-08-07T21:25:24.608Z,2.30
2018-08-07T21:27:55.074Z,1.52
2018-08-07T21:30:26.055Z,1.62
2018-08-07T21:32:54.751Z,1.52
2018-08-07T21:35:23.292Z,2.12
2018-08-07T21:37:52.028Z,1.50
2018-08-07T21:40:21.726Z,1.80
2018-08-07T21:42:51.022Z,1.70
2018-08-07T21:45:20.077Z,2.15
2018-08-07T21:47:48.759Z,1.50
2018-08-07T21:50:19.250Z,1.87
2018-08-07T21:52:47.944Z,1.90
2018-08-07T21:55:17.587Z,1.90
2018-08-07T21:57:46.373Z,1.40
2018-08-07T22:00:18.591Z,1.90
2018-08-07T22:02:48.411Z,1.72
2018-08-07T22:05:17.023Z,1.82
2018-08-07T22:07:45.623Z,1.85
2018-08-07T22:10:16.903Z,1.90
2018-08-07T22:12:45.689Z,2.10
2018-08-07T22:15:14.784Z,1.67
2018-08-07T22:17:43.070Z,2.22
2018-08-07T22:20:11.588Z,2.15
2018-08-07T22:22:40.247Z,1.60
2018-08-07T22:25:09.505Z,1.90
2018-08-07T22:27:38.388Z,1.57
2018-08-07T22:30:10.230Z,1.82
2018-08-07T22:32:38.867Z,1.85
2018-08-07T22:35:07.830Z,2.02
2018-08-07T22:37:36.613Z,1.77
2018-08-07T22:40:05.651Z,2.00
2018-08-07T22:42:34.535Z,1.80
2018-08-07T22:45:03.171Z,1.60
2018-08-07T22:47:31.740Z,1.62
2018-08-07T22:50:00.289Z,1.72
2018-08-07T22:52:28.709Z,2.10
2018-08-07T22:54:57.304Z,1.70
2018-08-07T22:57:25.917Z,1.65
2018-08-07T22:59:54.489Z,2.25
2018-08-07T23:02:22.974Z,1.92
2018-08-07T23:04:51.573Z,1.85
2018-08-07T23:07:20.186Z,1.98
2018-08-07T23:09:48.809Z,1.55
2018-08-07T23:12:17.357Z,2.05
2018-08-07T23:14:45.918Z,2.15
2018-08-07T23:17:14.138Z,1.92
2018-08-07T23:19:43.047Z,2.52
2018-08-07T23:22:11.622Z,1.75
2018-08-07T23:24:40.186Z,2.20
2018-08-07T23:27:08.739Z,1.45
2018-08-07T23:29:36.982Z,1.82
2018-08-07T23:32:05.584Z,2.10
2018-08-07T23:34:34.138Z,2.20
2018-08-07T23:37:02.745Z,2.40
2018-08-07T23:39:31.303Z,2.20
2018-08-07T23:41:59.846Z,2.10
2018-08-07T23:44:28.395Z,1.90
2018-08-07T23:46:56.957Z,2.20
2018-08-07T23:49:25.512Z,2.25
2018-08-07T23:51:54.070Z,2.50
2018-08-07T23:54:22.689Z,1.95
2018-08-07T23:56:51.267Z,2.20
2018-08-07T23:59:19.831Z,2.30
